Time;durP1;ratioP1;P1;durP2;ratioP2;P2;SDS_P1;SDS_P2;PMS_P1;PMS_P2;Temp;Humidity;BMP_temperature;BMP_pressure;BME280_temperature;BME280_humidity;BME280_pressure;Samples;Min_cycle;Max_cycle;Signal;HPM_P1;HPM_P2
2022/06/14 00:02:28;;;;;;;5.80;3.30;;;;;;;;;;4952242;28;20533;-55
2022/06/14 00:05:05;;;;;;;10.73;4.10;;;;;;;;;;4933758;28;20478;-56
2022/06/14 00:07:31;;;;;;;5.17;3.57;;;;;;;;;;4967804;28;20537;-56
2022/06/14 00:09:57;;;;;;;7.23;3.80;;;;;;;;;;4947732;28;20443;-56
2022/06/14 00:12:23;;;;;;;6.23;2.93;;;;;;;;;;4952062;28;20189;-56
2022/06/14 00:14:49;;;;;;;6.27;4.20;;;;;;;;;;4935580;28;22450;-56
2022/06/14 00:17:15;;;;;;;5.63;4.10;;;;;;;;;;4944721;28;20446;-60
2022/06/14 00:20:06;;;;;;;6.90;3.57;;;;;;;;;;4936400;28;20199;-56
2022/06/14 00:22:36;;;;;;;6.93;3.57;;;;;;;;;;4950074;28;20894;-56
2022/06/14 00:25:02;;;;;;;8.30;3.80;;;;;;;;;;4942601;28;20486;-56
2022/06/14 00:27:28;;;;;;;5.37;3.70;;;;;;;;;;4952601;28;20230;-57
2022/06/14 00:29:54;;;;;;;7.10;4.70;;;;;;;;;;4943760;28;21030;-57
2022/06/14 00:32:20;;;;;;;7.03;4.10;;;;;;;;;;4955319;28;20449;-57
2022/06/14 00:34:46;;;;;;;5.00;3.73;;;;;;;;;;4937798;28;21288;-55
2022/06/14 00:37:16;;;;;;;9.57;4.43;;;;;;;;;;4948039;28;20458;-58
2022/06/14 00:39:55;;;;;;;4.60;4.10;;;;;;;;;;4935702;28;21065;-56
2022/06/14 00:42:25;;;;;;;7.87;4.10;;;;;;;;;;4951372;28;20450;-58
2022/06/14 00:45:10;;;;;;;5.43;3.97;;;;;;;;;;4948523;28;20450;-56
2022/06/14 00:47:37;;;;;;;4.20;3.57;;;;;;;;;;4952964;28;20482;-56
2022/06/14 00:50:04;;;;;;;4.73;3.60;;;;;;;;;;4942162;28;20435;-56
2022/06/14 00:52:35;;;;;;;6.77;3.73;;;;;;;;;;4949247;28;20484;-55
2022/06/14 00:55:02;;;;;;;5.03;3.60;;;;;;;;;;4914758;28;20510;-57
2022/06/14 00:57:30;;;;;;;4.20;3.07;;;;;;;;;;4945423;28;20457;-57
2022/06/14 01:00:03;;;;;;;8.00;4.10;;;;;;;;;;4946791;28;21356;-56
2022/06/14 01:02:36;;;;;;;6.70;4.00;;;;;;;;;;4949440;28;20534;-56
2022/06/14 01:05:03;;;;;;;7.80;4.17;;;;;;;;;;4946404;28;20447;-56
2022/06/14 01:07:33;;;;;;;3.70;3.30;;;;;;;;;;4951622;28;20964;-56
2022/06/14 01:10:03;;;;;;;8.43;3.73;;;;;;;;;;4925673;28;20439;-56
2022/06/14 01:12:30;;;;;;;5.60;3.90;;;;;;;;;;4950549;28;21327;-56
2022/06/14 01:14:58;;;;;;;6.27;4.67;;;;;;;;;;4942248;28;20447;-56
2022/06/14 01:17:24;;;;;;;7.67;5.13;;;;;;;;;;4948331;28;20457;-54
2022/06/14 01:19:50;;;;;;;11.50;6.90;;;;;;;;;;4940904;28;20446;-56
2022/06/14 01:22:19;;;;;;;12.20;7.20;;;;;;;;;;4949845;28;20189;-58
2022/06/14 01:25:06;;;;;;;9.97;7.13;;;;;;;;;;4932808;28;20662;-56
2022/06/14 01:27:33;;;;;;;9.57;7.00;;;;;;;;;;4927454;28;20476;-56
2022/06/14 01:30:11;;;;;;;7.20;5.93;;;;;;;;;;4943237;28;20821;-56
2022/06/14 01:32:40;;;;;;;7.20;5.90;;;;;;;;;;4945451;28;20459;-57
2022/06/14 01:35:07;;;;;;;7.60;5.50;;;;;;;;;;4947380;28;20443;-55
2022/06/14 01:37:33;;;;;;;10.57;6.50;;;;;;;;;;4930128;28;20443;-57
2022/06/14 01:40:00;;;;;;;5.40;4.50;;;;;;;;;;4950389;28;20506;-55
2022/06/14 01:42:34;;;;;;;7.07;5.63;;;;;;;;;;4923145;28;20451;-56
2022/06/14 01:45:18;;;;;;;8.00;4.63;;;;;;;;;;4943773;28;20457;-56
2022/06/14 01:47:52;;;;;;;8.33;4.80;;;;;;;;;;4929669;28;20629;-56
2022/06/14 01:53:40;;;;;;;13.50;4.13;;;;;;;;;;4945365;28;20477;-56
2022/06/14 01:56:13;;;;;;;4.73;3.80;;;;;;;;;;4911783;28;21320;-56
2022/06/14 01:59:05;;;;;;;9.63;4.90;;;;;;;;;;4943253;28;20438;-55
2022/06/14 02:01:33;;;;;;;6.83;4.47;;;;;;;;;;4933552;28;20594;-55
2022/06/14 02:07:13;;;;;;;9.60;6.07;;;;;;;;;;4928475;28;20477;-56
2022/06/14 02:09:49;;;;;;;6.93;4.87;;;;;;;;;;4947543;28;20431;-56
2022/06/14 02:12:15;;;;;;;7.77;5.63;;;;;;;;;;4925560;28;20455;-56
2022/06/14 02:15:06;;;;;;;6.37;4.80;;;;;;;;;;4947592;28;20436;-56
2022/06/14 02:17:35;;;;;;;7.17;4.83;;;;;;;;;;4922393;28;20486;-56
2022/06/14 02:20:03;;;;;;;6.50;4.27;;;;;;;;;;4933752;29;20438;-56
2022/06/14 02:22:42;;;;;;;6.40;5.00;;;;;;;;;;4942395;28;20994;-56
2022/06/14 02:25:21;;;;;;;7.20;4.50;;;;;;;;;;4933090;28;20996;-56
2022/06/14 02:27:53;;;;;;;5.33;4.10;;;;;;;;;;4926253;28;20501;-56
2022/06/14 02:30:24;;;;;;;11.40;4.70;;;;;;;;;;4949797;28;20513;-55
2022/06/14 02:32:53;;;;;;;9.70;4.87;;;;;;;;;;4931490;29;20470;-56
2022/06/14 02:35:28;;;;;;;8.33;6.07;;;;;;;;;;4930058;28;20460;-56
2022/06/14 02:38:03;;;;;;;14.00;7.50;;;;;;;;;;4934167;28;20447;-56
2022/06/14 02:40:32;;;;;;;16.80;7.23;;;;;;;;;;4942049;28;20564;-56
2022/06/14 02:43:05;;;;;;;15.23;8.37;;;;;;;;;;4950047;28;20578;-57
2022/06/14 02:45:44;;;;;;;10.27;6.13;;;;;;;;;;4947472;28;20450;-56
2022/06/14 02:48:24;;;;;;;11.00;6.30;;;;;;;;;;4948182;28;20493;-56
2022/06/14 02:50:49;;;;;;;10.20;5.90;;;;;;;;;;4945918;28;20442;-56
2022/06/14 02:53:18;;;;;;;13.20;6.13;;;;;;;;;;4952070;28;20447;-56
2022/06/14 02:56:03;;;;;;;8.30;6.10;;;;;;;;;;4935842;28;20502;-57
2022/06/14 02:58:32;;;;;;;7.40;5.70;;;;;;;;;;4954599;28;20507;-56
2022/06/14 03:01:05;;;;;;;6.00;4.83;;;;;;;;;;4918897;28;21007;-57
2022/06/14 03:03:39;;;;;;;6.00;5.07;;;;;;;;;;4969452;28;20447;-56
2022/06/14 03:06:13;;;;;;;15.57;5.40;;;;;;;;;;4922363;28;20858;-56
2022/06/14 03:08:46;;;;;;;8.70;4.90;;;;;;;;;;4944633;28;20507;-56
2022/06/14 03:11:21;;;;;;;9.90;5.27;;;;;;;;;;4935557;28;20453;-56
2022/06/14 03:13:47;;;;;;;7.77;5.80;;;;;;;;;;4954022;28;20438;-56
2022/06/14 03:16:32;;;;;;;9.57;5.20;;;;;;;;;;4930093;28;22889;-56
2022/06/14 03:18:58;;;;;;;8.73;5.17;;;;;;;;;;4966078;28;20180;-57
2022/06/14 03:21:34;;;;;;;9.80;5.40;;;;;;;;;;4946898;28;20435;-57
2022/06/14 03:24:02;;;;;;;6.77;5.53;;;;;;;;;;4952960;28;20478;-56
2022/06/14 03:26:31;;;;;;;6.10;5.43;;;;;;;;;;4931953;28;21024;-56
2022/06/14 03:28:59;;;;;;;5.53;4.80;;;;;;;;;;4952071;28;20457;-56
2022/06/14 03:31:28;;;;;;;9.80;5.80;;;;;;;;;;4931135;28;20435;-55
2022/06/14 03:34:10;;;;;;;8.97;5.93;;;;;;;;;;4946825;28;20529;-56
2022/06/14 03:36:36;;;;;;;11.47;5.90;;;;;;;;;;4915077;28;20916;-56
2022/06/14 03:39:13;;;;;;;7.93;5.50;;;;;;;;;;4936920;29;20478;-56
2022/06/14 03:41:40;;;;;;;11.20;5.00;;;;;;;;;;4931752;28;20509;-55
2022/06/14 03:44:06;;;;;;;7.10;4.50;;;;;;;;;;4947351;28;20942;-56
2022/06/14 03:46:39;;;;;;;7.67;7.00;;;;;;;;;;4929088;28;21043;-56
2022/06/14 03:49:09;;;;;;;8.90;5.73;;;;;;;;;;4947037;28;20447;-56
2022/06/14 03:51:47;;;;;;;6.17;4.90;;;;;;;;;;4951324;28;20795;-56
2022/06/14 03:54:15;;;;;;;10.03;4.83;;;;;;;;;;4951469;28;20478;-55
2022/06/14 03:56:59;;;;;;;6.00;5.17;;;;;;;;;;4936968;28;20742;-56
2022/06/14 03:59:25;;;;;;;7.20;5.03;;;;;;;;;;4951695;28;20445;-56
2022/06/14 04:01:52;;;;;;;7.57;5.10;;;;;;;;;;4947000;28;20434;-56
2022/06/14 04:04:26;;;;;;;8.60;5.30;;;;;;;;;;4946429;28;20493;-56
2022/06/14 04:06:58;;;;;;;8.90;5.73;;;;;;;;;;4913270;28;20482;-57
2022/06/14 04:09:30;;;;;;;6.17;5.20;;;;;;;;;;4935812;28;20518;-57
2022/06/14 04:12:05;;;;;;;10.30;5.37;;;;;;;;;;4942527;28;20929;-55
2022/06/14 04:14:37;;;;;;;9.73;5.60;;;;;;;;;;4945913;28;20504;-56
2022/06/14 04:17:24;;;;;;;8.00;4.90;;;;;;;;;;4933129;28;20447;-56
2022/06/14 04:19:59;;;;;;;7.00;4.53;;;;;;;;;;4947711;28;20442;-57
2022/06/14 04:22:28;;;;;;;6.37;4.90;;;;;;;;;;4929472;28;20454;-56
2022/06/14 04:25:03;;;;;;;7.30;6.00;;;;;;;;;;4951524;28;20452;-56
2022/06/14 04:27:38;;;;;;;9.00;5.13;;;;;;;;;;4939991;28;20602;-55
2022/06/14 04:30:12;;;;;;;6.43;5.20;;;;;;;;;;4952294;28;20499;-57
2022/06/14 04:32:42;;;;;;;7.77;5.70;;;;;;;;;;4943028;28;20446;-56
2022/06/14 04:35:29;;;;;;;9.33;4.77;;;;;;;;;;4943763;28;20426;-57
2022/06/14 04:38:05;;;;;;;7.77;4.87;;;;;;;;;;4928981;28;20454;-56
2022/06/14 04:40:35;;;;;;;10.13;5.30;;;;;;;;;;4946576;28;20435;-57
2022/06/14 04:43:05;;;;;;;10.27;5.83;;;;;;;;;;4949477;28;20422;-57
2022/06/14 04:45:33;;;;;;;9.50;5.23;;;;;;;;;;4943175;28;20448;-58
2022/06/14 04:48:05;;;;;;;6.17;5.47;;;;;;;;;;4948553;28;21014;-57
2022/06/14 04:51:00;;;;;;;7.10;5.20;;;;;;;;;;4938439;28;20441;-57
2022/06/14 04:53:38;;;;;;;6.63;4.30;;;;;;;;;;4914948;28;20445;-56
2022/06/14 04:56:05;;;;;;;9.20;5.40;;;;;;;;;;4922669;28;20918;-56
2022/06/14 04:58:45;;;;;;;8.17;5.40;;;;;;;;;;4951070;28;20425;-56
2022/06/14 05:01:30;;;;;;;6.80;4.67;;;;;;;;;;4946586;28;20774;-56
2022/06/14 05:04:02;;;;;;;7.50;5.10;;;;;;;;;;4950981;28;20948;-56
2022/06/14 05:06:37;;;;;;;8.10;5.20;;;;;;;;;;4936393;28;20737;-56
2022/06/14 05:09:06;;;;;;;8.40;5.03;;;;;;;;;;4959739;28;21197;-57
2022/06/14 05:11:37;;;;;;;9.43;4.97;;;;;;;;;;4913979;28;20482;-57
2022/06/14 05:14:04;;;;;;;6.13;4.50;;;;;;;;;;4943890;28;20448;-55
2022/06/14 05:16:38;;;;;;;9.27;5.73;;;;;;;;;;4928305;28;20557;-56
2022/06/14 05:19:19;;;;;;;9.60;5.23;;;;;;;;;;4942964;28;20522;-56
2022/06/14 05:21:51;;;;;;;8.17;5.53;;;;;;;;;;4925956;28;20502;-56
2022/06/14 05:24:17;;;;;;;8.70;5.00;;;;;;;;;;4951048;28;20991;-56
2022/06/14 05:27:03;;;;;;;6.03;4.53;;;;;;;;;;4946747;28;20434;-56
2022/06/14 05:29:32;;;;;;;8.93;5.27;;;;;;;;;;4947879;28;20439;-56
2022/06/14 05:31:59;;;;;;;6.10;4.77;;;;;;;;;;4930729;28;20477;-57
2022/06/14 05:34:43;;;;;;;10.40;5.73;;;;;;;;;;4945924;28;20468;-57
2022/06/14 05:37:18;;;;;;;7.80;6.43;;;;;;;;;;4930349;28;20458;-57
2022/06/14 05:39:50;;;;;;;4.60;4.20;;;;;;;;;;4945288;28;20461;-56
2022/06/14 05:42:17;;;;;;;4.77;4.37;;;;;;;;;;4916644;28;20443;-57
2022/06/14 05:44:48;;;;;;;9.53;5.10;;;;;;;;;;4934670;29;20525;-56
2022/06/14 05:47:15;;;;;;;8.73;4.77;;;;;;;;;;4946085;28;20474;-56
2022/06/14 05:49:46;;;;;;;8.67;4.90;;;;;;;;;;4947819;28;20901;-56
2022/06/14 05:52:17;;;;;;;6.40;5.13;;;;;;;;;;4918562;28;20439;-56
2022/06/14 05:54:45;;;;;;;5.83;5.20;;;;;;;;;;4950133;28;20763;-56
2022/06/14 05:57:14;;;;;;;7.60;4.93;;;;;;;;;;4928866;28;20493;-58
2022/06/14 05:59:43;;;;;;;8.00;4.83;;;;;;;;;;4951120;28;20450;-57
2022/06/14 06:02:29;;;;;;;9.00;4.40;;;;;;;;;;4941526;28;20434;-56
2022/06/14 06:05:21;;;;;;;6.60;4.47;;;;;;;;;;4940862;28;20519;-56
2022/06/14 06:07:55;;;;;;;4.50;4.10;;;;;;;;;;4933803;28;20577;-56
2022/06/14 06:10:31;;;;;;;7.70;4.07;;;;;;;;;;4948095;28;20521;-55
2022/06/14 06:13:08;;;;;;;5.63;4.83;;;;;;;;;;4943305;28;20453;-56
2022/06/14 06:15:56;;;;;;;9.13;4.23;;;;;;;;;;4932264;28;21246;-56
2022/06/14 06:18:45;;;;;;;6.53;4.37;;;;;;;;;;4954316;28;21166;-56
2022/06/14 06:21:20;;;;;;;8.80;5.23;;;;;;;;;;4933467;28;20566;-56
2022/06/14 06:23:49;;;;;;;7.47;4.73;;;;;;;;;;4952262;28;20438;-55
2022/06/14 06:26:14;;;;;;;7.97;4.90;;;;;;;;;;4946194;28;20469;-56
2022/06/14 06:28:42;;;;;;;7.43;5.13;;;;;;;;;;4959032;28;20495;-57
2022/06/14 06:31:18;;;;;;;11.50;5.30;;;;;;;;;;4945192;28;20789;-55
2022/06/14 06:33:47;;;;;;;13.23;5.83;;;;;;;;;;4948355;28;21011;-55
2022/06/14 06:36:31;;;;;;;7.47;5.30;;;;;;;;;;4931300;28;21140;-55
2022/06/14 06:39:09;;;;;;;8.87;6.90;;;;;;;;;;4953031;28;20578;-56
2022/06/14 06:41:49;;;;;;;5.43;4.83;;;;;;;;;;4931346;28;20434;-56
2022/06/14 06:44:24;;;;;;;10.27;4.53;;;;;;;;;;4953253;28;20442;-55
2022/06/14 06:46:52;;;;;;;7.37;4.70;;;;;;;;;;4928069;28;20439;-55
2022/06/14 06:49:18;;;;;;;10.20;4.67;;;;;;;;;;4952464;28;20447;-56
2022/06/14 06:51:48;;;;;;;9.73;5.23;;;;;;;;;;4919299;28;20453;-56
2022/06/14 06:54:35;;;;;;;11.90;5.00;;;;;;;;;;4942956;28;20180;-56
2022/06/14 06:57:01;;;;;;;11.37;5.07;;;;;;;;;;4942808;28;20455;-56
2022/06/14 06:59:34;;;;;;;11.20;5.50;;;;;;;;;;4954026;28;20520;-56
2022/06/14 07:02:02;;;;;;;13.00;4.90;;;;;;;;;;4949645;28;20450;-56
2022/06/14 07:07:17;;;;;;;8.33;4.80;;;;;;;;;;4932826;28;20482;-56
2022/06/14 07:09:50;;;;;;;6.90;5.37;;;;;;;;;;4949247;28;20446;-56
2022/06/14 07:12:17;;;;;;;6.50;5.23;;;;;;;;;;4929667;28;21014;-56
2022/06/14 07:14:46;;;;;;;10.43;5.23;;;;;;;;;;4950149;28;20795;-56
2022/06/14 07:17:13;;;;;;;5.50;4.60;;;;;;;;;;4935259;28;20457;-56
2022/06/14 07:19:43;;;;;;;7.77;5.07;;;;;;;;;;4954058;28;20453;-56
2022/06/14 07:22:18;;;;;;;7.43;5.33;;;;;;;;;;4940308;28;20462;-56
2022/06/14 07:25:05;;;;;;;11.10;6.03;;;;;;;;;;4953398;28;20485;-57
2022/06/14 07:27:34;;;;;;;7.00;5.60;;;;;;;;;;4909933;28;20576;-56
2022/06/14 07:30:20;;;;;;;6.40;5.20;;;;;;;;;;4957334;28;20442;-56
2022/06/14 07:32:48;;;;;;;8.03;5.10;;;;;;;;;;4950696;28;20462;-56
2022/06/14 07:35:20;;;;;;;8.00;5.10;;;;;;;;;;4956798;28;20545;-56
2022/06/14 07:37:52;;;;;;;12.57;6.73;;;;;;;;;;4938011;28;20440;-56
2022/06/14 07:40:20;;;;;;;6.90;5.23;;;;;;;;;;4954833;28;20510;-55
2022/06/14 07:42:52;;;;;;;7.70;5.27;;;;;;;;;;4956109;28;20485;-55
2022/06/14 07:45:20;;;;;;;7.20;5.70;;;;;;;;;;4953682;28;20439;-55
2022/06/14 07:48:06;;;;;;;5.40;4.77;;;;;;;;;;4942718;28;20638;-56
2022/06/14 07:50:43;;;;;;;5.90;4.70;;;;;;;;;;4952101;28;20448;-56
2022/06/14 07:53:13;;;;;;;10.60;4.70;;;;;;;;;;4944038;28;20454;-56
2022/06/14 07:55:46;;;;;;;7.93;5.47;;;;;;;;;;4935504;28;20443;-56
2022/06/14 07:58:12;;;;;;;9.33;6.50;;;;;;;;;;4950529;28;20446;-56
2022/06/14 08:01:07;;;;;;;6.97;5.13;;;;;;;;;;4932812;28;20465;-55
2022/06/14 08:03:53;;;;;;;8.33;4.80;;;;;;;;;;4954008;28;20488;-58
2022/06/14 08:06:20;;;;;;;5.70;4.47;;;;;;;;;;4931656;28;20558;-56
2022/06/14 08:08:46;;;;;;;8.47;4.90;;;;;;;;;;4953516;28;21072;-56
2022/06/14 08:11:15;;;;;;;7.67;4.97;;;;;;;;;;4931042;28;20522;-56
2022/06/14 08:13:45;;;;;;;6.73;5.10;;;;;;;;;;4949642;28;20477;-57
2022/06/14 08:16:11;;;;;;;16.73;6.40;;;;;;;;;;4947259;28;20449;-57
2022/06/14 08:18:40;;;;;;;6.10;4.33;;;;;;;;;;4932013;28;20458;-57
2022/06/14 08:21:14;;;;;;;8.40;6.50;;;;;;;;;;4928637;28;20471;-57
2022/06/14 08:23:42;;;;;;;6.30;4.50;;;;;;;;;;4950570;28;20437;-57
2022/06/14 08:26:09;;;;;;;5.93;5.17;;;;;;;;;;4928845;28;20545;-55
2022/06/14 08:28:54;;;;;;;7.70;7.00;;;;;;;;;;4944773;28;20505;-57
2022/06/14 08:31:30;;;;;;;6.50;4.83;;;;;;;;;;4942390;28;21001;-57
2022/06/14 08:34:22;;;;;;;8.83;5.13;;;;;;;;;;4917791;28;20449;-57
2022/06/14 08:37:05;;;;;;;6.03;4.80;;;;;;;;;;4948027;28;20446;-57
2022/06/14 08:39:42;;;;;;;11.87;6.07;;;;;;;;;;4929728;28;20447;-56
2022/06/14 08:42:29;;;;;;;6.27;4.70;;;;;;;;;;4933034;28;20439;-56
2022/06/14 08:45:14;;;;;;;11.53;5.90;;;;;;;;;;4944065;28;20438;-56
2022/06/14 08:47:56;;;;;;;4.87;4.37;;;;;;;;;;4942202;28;21600;-56
2022/06/14 08:50:28;;;;;;;6.27;4.87;;;;;;;;;;4945444;28;20501;-56
2022/06/14 08:53:09;;;;;;;6.93;5.77;;;;;;;;;;4934739;28;20517;-58
2022/06/14 08:55:41;;;;;;;5.50;4.80;;;;;;;;;;4951334;28;20517;-56
2022/06/14 08:58:10;;;;;;;6.03;4.83;;;;;;;;;;4928140;28;20557;-55
2022/06/14 09:00:42;;;;;;;6.40;4.73;;;;;;;;;;4945504;28;20469;-56
2022/06/14 09:03:21;;;;;;;9.90;4.43;;;;;;;;;;4948866;28;20418;-56
2022/06/14 09:06:05;;;;;;;8.47;4.80;;;;;;;;;;4952832;28;20605;-56
2022/06/14 09:08:41;;;;;;;8.90;5.00;;;;;;;;;;4910296;28;20549;-55
2022/06/14 09:11:26;;;;;;;8.70;4.70;;;;;;;;;;4966590;28;20442;-56
2022/06/14 09:14:10;;;;;;;6.60;4.13;;;;;;;;;;4941473;28;20457;-55
2022/06/14 09:16:45;;;;;;;6.43;5.23;;;;;;;;;;4951539;28;20443;-57
2022/06/14 09:19:24;;;;;;;6.40;4.13;;;;;;;;;;4947690;28;20459;-57
2022/06/14 09:21:50;;;;;;;6.37;4.80;;;;;;;;;;4951524;28;20438;-56
2022/06/14 09:24:23;;;;;;;8.70;5.23;;;;;;;;;;4928042;28;20462;-57
2022/06/14 09:27:08;;;;;;;10.70;5.77;;;;;;;;;;4950939;28;20442;-56
2022/06/14 09:29:53;;;;;;;8.13;4.73;;;;;;;;;;4927245;28;20827;-56
2022/06/14 09:33:09;;;;;;;10.07;3.90;;;;;;;;;;4944653;28;20466;-58
2022/06/14 09:35:24;;;;;;;4.90;3.70;;;;;;;;;;4950051;28;20434;-55
2022/06/14 09:37:53;;;;;;;8.73;4.03;;;;;;;;;;4942084;28;20419;-56
2022/06/14 09:40:22;;;;;;;5.30;4.20;;;;;;;;;;4950881;28;20442;-56
2022/06/14 09:43:16;;;;;;;6.43;4.10;;;;;;;;;;4929593;28;20442;-61
2022/06/14 09:45:42;;;;;;;6.23;4.20;;;;;;;;;;4945641;28;20442;-56
2022/06/14 09:48:27;;;;;;;9.77;5.50;;;;;;;;;;4932212;28;20954;-56
2022/06/14 09:50:53;;;;;;;5.20;4.60;;;;;;;;;;4947910;28;20465;-56
2022/06/14 09:53:19;;;;;;;5.70;4.20;;;;;;;;;;4953164;28;20826;-56
2022/06/14 09:55:49;;;;;;;12.03;4.20;;;;;;;;;;4954585;28;20260;-55
2022/06/14 09:58:15;;;;;;;10.07;4.30;;;;;;;;;;4933912;28;20455;-56
2022/06/14 10:00:44;;;;;;;6.53;4.30;;;;;;;;;;4942790;28;20483;-56
2022/06/14 10:03:14;;;;;;;5.40;3.50;;;;;;;;;;4941349;28;20967;-56
2022/06/14 10:06:01;;;;;;;5.47;4.60;;;;;;;;;;4948441;28;20431;-56
2022/06/14 10:08:33;;;;;;;7.10;3.97;;;;;;;;;;4952335;28;21110;-56
2022/06/14 10:11:06;;;;;;;6.43;4.40;;;;;;;;;;4951443;28;20427;-55
2022/06/14 10:13:47;;;;;;;6.37;3.90;;;;;;;;;;4953905;28;20579;-56
2022/06/14 10:16:32;;;;;;;4.63;3.90;;;;;;;;;;4958808;28;20449;-57
2022/06/14 10:19:08;;;;;;;8.97;5.00;;;;;;;;;;4920468;28;20467;-57
2022/06/14 10:21:40;;;;;;;5.50;4.60;;;;;;;;;;4958828;28;20465;-56
2022/06/14 10:24:08;;;;;;;7.73;5.23;;;;;;;;;;4953418;28;20828;-56
2022/06/14 10:29:26;;;;;;;8.83;4.77;;;;;;;;;;4944576;28;20543;-57
2022/06/14 10:31:55;;;;;;;9.40;4.30;;;;;;;;;;4956537;28;20534;-56
2022/06/14 10:34:32;;;;;;;5.67;4.30;;;;;;;;;;4929957;28;20526;-56
2022/06/14 10:37:07;;;;;;;5.40;3.30;;;;;;;;;;4958303;28;20434;-57
2022/06/14 10:39:51;;;;;;;7.77;4.10;;;;;;;;;;4939017;28;20473;-56
2022/06/14 10:42:20;;;;;;;10.63;4.20;;;;;;;;;;4958514;28;20434;-56
2022/06/14 10:45:04;;;;;;;9.20;4.00;;;;;;;;;;4954151;28;20990;-57
2022/06/14 10:47:51;;;;;;;5.70;3.90;;;;;;;;;;4941523;28;20485;-57
2022/06/14 10:50:36;;;;;;;8.40;4.83;;;;;;;;;;4945126;28;20516;-55
2022/06/14 10:53:07;;;;;;;6.10;4.20;;;;;;;;;;4949758;28;20461;-59
2022/06/14 10:55:42;;;;;;;4.47;3.90;;;;;;;;;;4958543;28;20442;-56
2022/06/14 10:58:27;;;;;;;5.43;4.20;;;;;;;;;;4935726;28;21059;-58
2022/06/14 11:00:53;;;;;;;6.10;4.37;;;;;;;;;;4957330;28;20803;-57
2022/06/14 11:03:23;;;;;;;7.07;5.50;;;;;;;;;;4945235;28;20443;-57
2022/06/14 11:06:06;;;;;;;5.60;3.90;;;;;;;;;;4952957;28;20441;-57
2022/06/14 11:08:41;;;;;;;7.57;4.50;;;;;;;;;;4927699;28;20493;-57
2022/06/14 11:11:28;;;;;;;5.20;4.50;;;;;;;;;;4953791;28;20449;-58
2022/06/14 11:14:13;;;;;;;6.33;4.50;;;;;;;;;;4950304;28;20446;-57
2022/06/14 11:16:46;;;;;;;7.23;4.30;;;;;;;;;;4942643;28;20489;-56
2022/06/14 11:19:25;;;;;;;7.83;4.60;;;;;;;;;;4907199;28;21040;-57
2022/06/14 11:22:10;;;;;;;5.23;4.17;;;;;;;;;;4953156;28;20450;-56
2022/06/14 11:24:51;;;;;;;7.77;3.80;;;;;;;;;;4948300;28;20454;-57
2022/06/14 11:27:44;;;;;;;5.93;4.00;;;;;;;;;;4952534;28;20543;-56
2022/06/14 11:30:10;;;;;;;6.20;3.97;;;;;;;;;;4943577;28;20434;-56
2022/06/14 11:32:41;;;;;;;5.30;4.20;;;;;;;;;;4950062;28;20517;-56
2022/06/14 11:35:13;;;;;;;6.37;4.33;;;;;;;;;;4948669;28;20183;-56
2022/06/14 11:37:53;;;;;;;5.03;3.97;;;;;;;;;;4939092;28;20496;-57
2022/06/14 11:40:26;;;;;;;4.90;3.97;;;;;;;;;;4948947;28;20515;-56
2022/06/14 11:42:58;;;;;;;4.37;3.63;;;;;;;;;;4928567;28;20446;-56
2022/06/14 11:45:32;;;;;;;4.97;3.97;;;;;;;;;;4952140;28;20435;-56
2022/06/14 11:47:58;;;;;;;4.43;4.03;;;;;;;;;;4947884;28;20839;-57
2022/06/14 11:50:33;;;;;;;4.27;3.87;;;;;;;;;;4949013;28;20498;-57
2022/06/14 11:53:05;;;;;;;4.80;4.30;;;;;;;;;;4931807;28;21048;-58
2022/06/14 11:55:31;;;;;;;4.20;3.37;;;;;;;;;;4951935;28;20441;-57
2022/06/14 11:58:05;;;;;;;6.93;4.20;;;;;;;;;;4934548;28;21025;-56
2022/06/14 12:00:50;;;;;;;7.70;4.17;;;;;;;;;;4951551;28;20199;-56
2022/06/14 12:03:18;;;;;;;5.80;3.60;;;;;;;;;;4947940;28;21168;-56
2022/06/14 12:05:46;;;;;;;3.90;3.60;;;;;;;;;;4947574;28;20925;-60
2022/06/14 12:08:18;;;;;;;5.50;3.50;;;;;;;;;;4945099;28;20521;-57
2022/06/14 12:10:57;;;;;;;5.60;4.07;;;;;;;;;;4944985;28;20814;-57
2022/06/14 12:13:42;;;;;;;7.10;4.30;;;;;;;;;;4941252;28;20454;-57
2022/06/14 12:16:10;;;;;;;4.23;3.73;;;;;;;;;;4952156;28;20456;-57
2022/06/14 12:18:37;;;;;;;4.10;3.70;;;;;;;;;;4932048;28;21125;-56
2022/06/14 12:21:06;;;;;;;4.10;3.57;;;;;;;;;;4949801;28;21172;-57
2022/06/14 12:23:39;;;;;;;4.50;3.63;;;;;;;;;;4912646;28;20442;-57
2022/06/14 12:28:55;;;;;;;6.20;3.83;;;;;;;;;;4925098;28;20485;-57
2022/06/14 12:31:40;;;;;;;4.47;3.60;;;;;;;;;;4951117;28;20439;-57
2022/06/14 12:34:20;;;;;;;6.00;3.60;;;;;;;;;;4941200;28;20186;-57
2022/06/14 12:36:58;;;;;;;4.67;3.47;;;;;;;;;;4948524;28;20438;-58
2022/06/14 12:39:27;;;;;;;5.30;3.40;;;;;;;;;;4947065;28;20598;-55
2022/06/14 12:42:06;;;;;;;4.10;3.13;;;;;;;;;;4950942;28;20446;-57
2022/06/14 12:44:41;;;;;;;5.47;3.10;;;;;;;;;;4945394;28;20932;-56
2022/06/14 12:47:11;;;;;;;7.90;3.67;;;;;;;;;;4950064;28;20438;-57
2022/06/14 12:49:47;;;;;;;4.80;3.50;;;;;;;;;;4924654;28;20447;-57
2022/06/14 12:52:14;;;;;;;6.63;3.30;;;;;;;;;;4949648;28;20470;-57
2022/06/14 12:54:58;;;;;;;5.30;3.40;;;;;;;;;;4943826;28;20451;-57
2022/06/14 12:57:43;;;;;;;6.73;4.00;;;;;;;;;;4944632;28;20567;-58
2022/06/14 13:00:18;;;;;;;5.17;3.83;;;;;;;;;;4936923;28;20454;-57
2022/06/14 13:03:03;;;;;;;7.27;3.47;;;;;;;;;;4949845;28;20430;-57
2022/06/14 13:05:30;;;;;;;5.30;3.50;;;;;;;;;;4955172;28;20257;-56
2022/06/14 13:08:02;;;;;;;3.60;3.30;;;;;;;;;;4929551;28;21371;-57
2022/06/14 13:10:28;;;;;;;5.03;3.67;;;;;;;;;;4943652;28;20843;-56
2022/06/14 13:12:54;;;;;;;5.47;3.80;;;;;;;;;;4948212;28;20668;-56
2022/06/14 13:15:42;;;;;;;5.03;3.30;;;;;;;;;;4950509;28;20450;-56
2022/06/14 13:18:14;;;;;;;5.83;3.20;;;;;;;;;;4933397;28;21058;-55
2022/06/14 13:20:40;;;;;;;5.90;3.93;;;;;;;;;;4950726;28;20785;-57
2022/06/14 13:23:09;;;;;;;4.23;3.47;;;;;;;;;;4927877;28;21080;-57
2022/06/14 13:25:45;;;;;;;8.63;3.57;;;;;;;;;;4945536;28;20442;-57
2022/06/14 13:28:17;;;;;;;5.13;3.63;;;;;;;;;;4914211;28;20569;-56
2022/06/14 13:30:44;;;;;;;3.63;3.33;;;;;;;;;;4951087;28;20441;-57
2022/06/14 13:33:19;;;;;;;5.80;3.73;;;;;;;;;;4945621;28;20897;-58
2022/06/14 13:36:04;;;;;;;4.70;3.23;;;;;;;;;;4942630;28;20508;-57
2022/06/14 13:38:48;;;;;;;3.70;3.13;;;;;;;;;;4928764;28;20453;-58
2022/06/14 13:41:17;;;;;;;3.57;3.27;;;;;;;;;;4945548;28;20976;-57
2022/06/14 13:43:54;;;;;;;4.37;3.40;;;;;;;;;;4946339;28;20613;-57
2022/06/14 13:46:27;;;;;;;5.77;3.60;;;;;;;;;;4949718;28;20537;-56
2022/06/14 13:49:02;;;;;;;3.87;3.30;;;;;;;;;;4941096;28;20599;-58
2022/06/14 13:51:36;;;;;;;3.13;2.83;;;;;;;;;;4950296;28;20441;-57
2022/06/14 13:54:02;;;;;;;4.57;3.70;;;;;;;;;;4947159;28;20866;-57
2022/06/14 13:56:37;;;;;;;3.77;2.90;;;;;;;;;;4949868;28;20469;-59
2022/06/14 13:59:03;;;;;;;3.00;2.60;;;;;;;;;;4913876;28;20442;-57
2022/06/14 14:01:47;;;;;;;9.00;4.00;;;;;;;;;;4950563;28;20791;-57
2022/06/14 14:04:19;;;;;;;4.17;3.20;;;;;;;;;;4946731;28;20175;-57
2022/06/14 14:06:56;;;;;;;6.50;2.93;;;;;;;;;;4947485;28;20455;-57
2022/06/14 14:09:41;;;;;;;4.20;3.20;;;;;;;;;;4940476;28;20529;-57
2022/06/14 14:12:07;;;;;;;4.40;3.50;;;;;;;;;;4946862;28;20446;-58
2022/06/14 14:14:43;;;;;;;3.67;3.27;;;;;;;;;;4942099;28;20427;-58
2022/06/14 14:17:17;;;;;;;4.67;3.57;;;;;;;;;;4935038;28;20447;-58
2022/06/14 14:19:56;;;;;;;6.20;4.00;;;;;;;;;;4944169;28;20422;-57
2022/06/14 14:22:29;;;;;;;4.17;3.10;;;;;;;;;;4949328;28;20488;-57
2022/06/14 14:25:18;;;;;;;6.00;3.90;;;;;;;;;;4948491;28;20458;-58
2022/06/14 14:28:07;;;;;;;6.20;3.60;;;;;;;;;;4936720;28;21083;-55
2022/06/14 14:30:41;;;;;;;4.20;3.43;;;;;;;;;;4951642;28;20438;-55
2022/06/14 14:33:08;;;;;;;6.47;3.40;;;;;;;;;;4905251;28;21076;-58
2022/06/14 14:35:36;;;;;;;4.73;3.10;;;;;;;;;;4947475;28;20434;-57
2022/06/14 14:38:10;;;;;;;4.37;3.40;;;;;;;;;;4933530;28;20451;-56
2022/06/14 14:41:32;;;;;;;5.67;3.40;;;;;;;;;;4954420;28;20441;-56
2022/06/14 14:43:32;;;;;;;5.63;3.73;;;;;;;;;;4942846;28;20446;-57
2022/06/14 14:46:03;;;;;;;6.33;3.20;;;;;;;;;;4948898;28;20447;-56
2022/06/14 14:48:37;;;;;;;3.43;2.97;;;;;;;;;;4947472;28;20474;-57
2022/06/14 14:51:06;;;;;;;4.00;3.00;;;;;;;;;;4953380;28;20446;-56
2022/06/14 14:53:46;;;;;;;3.37;2.73;;;;;;;;;;4948519;28;20893;-57
2022/06/14 14:56:20;;;;;;;3.80;3.10;;;;;;;;;;4953447;28;20446;-56
2022/06/14 14:58:48;;;;;;;4.00;3.13;;;;;;;;;;4937994;28;20438;-57
2022/06/14 15:06:51;;;;;;;3.87;2.53;;;;;;;;;;4948369;28;20939;-56
2022/06/14 15:09:19;;;;;;;3.43;3.13;;;;;;;;;;4913767;28;20517;-57
2022/06/14 15:11:51;;;;;;;6.53;4.87;;;;;;;;;;4953628;28;20579;-57
2022/06/14 15:14:18;;;;;;;3.33;2.80;;;;;;;;;;4940046;28;20450;-56
2022/06/14 15:16:47;;;;;;;4.20;3.03;;;;;;;;;;4948891;28;20574;-59
2022/06/14 15:22:09;;;;;;;3.83;2.70;;;;;;;;;;4950098;28;20505;-57
2022/06/14 15:24:35;;;;;;;4.90;3.27;;;;;;;;;;4939877;28;20539;-56
2022/06/14 15:27:08;;;;;;;4.97;3.57;;;;;;;;;;4951770;28;20530;-56
2022/06/14 15:29:36;;;;;;;3.90;3.40;;;;;;;;;;4933566;28;20522;-56
2022/06/14 15:32:18;;;;;;;4.40;2.70;;;;;;;;;;4941019;28;20439;-56
2022/06/14 15:34:45;;;;;;;5.80;3.30;;;;;;;;;;4942233;28;20538;-56
2022/06/14 15:37:22;;;;;;;4.57;3.33;;;;;;;;;;4953184;28;20964;-59
2022/06/14 15:39:53;;;;;;;3.63;3.07;;;;;;;;;;4921141;28;20439;-56
2022/06/14 15:42:23;;;;;;;4.70;2.80;;;;;;;;;;4942044;28;20447;-56
2022/06/14 15:44:49;;;;;;;4.97;3.33;;;;;;;;;;4946582;28;20458;-57